Accueil
METAR-TAF:

METAR-TAF

Aéroports :

Aéroport de Saint-Hubert

Saint-Hubert, Québec, Canada

latitude: 45-31N, longitude: 073-25W, altitude: 27 m

Observation

Le bulletin a été fait il y a 21 minutes, à 03:00 UTC
Vent 7 kt de nord/nord-ouest
Température 17°C
Humidité 82%
Pression 1015 hPa
Visibilité: 14.5 km
Ciel clair

METAR: CYHU 190300Z AUTO 34007KT 9SM CLR 17/14 A2996 RMK SLP146 DENSITY ALT 200FT

Heure: 23:21 (03:21 UTC)

Prévision

Le bulletin a été fait il y a 3 heures et 43 minutes, à 23:38 UTC
Prévision valable du 19 à 00 UTC au 19 à 24 UTC
Vent 10 kt de nord-est
Visibilité: 10 km
Quelques nuages à une hauteur de 4000 ft

TAF: CYHU 182338Z 1900/1924 05010KT P6SM FEW040 RMK FCST BASED ON AUTO OBS. NXT FCST BY 190600Z

Observations et prévisions météorologiques de plus de 4000 aéroports (messages METAR et TAF).

Les stations disponibles sont représentées par des disques jaunes et rouges sur la carte.

Passer la souris dessus pour voir le nom de la station.

Cliquer dessus pour voir les observations et prévisions météorologiques.

Pour changer de carte: cliquez sur les boutons verts avec une croix noire pour zoomer, sur le bouton vert avec un tiret pour effectuer un zoom arrière, ou sur les flèches vertes pour les cartes adjacentes.


METAR-TAF: